createdAt,value
2023-03-26T00:00:28.443Z,31.74
2023-03-26T00:04:28.469Z,31.73
2023-03-26T00:08:28.597Z,31.70
2023-03-26T00:12:28.649Z,31.70
2023-03-26T00:16:28.792Z,31.67
2023-03-26T00:20:28.773Z,31.65
2023-03-26T00:24:28.774Z,31.67
2023-03-26T00:28:28.801Z,31.66
2023-03-26T00:32:28.827Z,31.64
2023-03-26T00:36:28.850Z,31.61
2023-03-26T00:40:28.824Z,31.59
2023-03-26T00:44:28.929Z,31.55
2023-03-26T00:48:41.882Z,31.54
2023-03-26T00:52:29.889Z,31.52
2023-03-26T00:56:28.848Z,31.52
2023-03-26T01:00:28.792Z,31.47
2023-03-26T01:04:28.842Z,31.47
2023-03-26T01:08:28.757Z,31.46
2023-03-26T01:12:28.681Z,31.43
2023-03-26T01:16:28.643Z,31.41
2023-03-26T01:20:28.661Z,31.41
2023-03-26T01:24:28.567Z,31.40
2023-03-26T01:28:28.539Z,31.38
2023-03-26T01:32:28.586Z,31.37
2023-03-26T01:36:28.504Z,31.34
2023-03-26T01:40:28.470Z,31.34
2023-03-26T01:44:28.380Z,31.33
2023-03-26T01:48:28.373Z,31.33
2023-03-26T01:52:28.336Z,31.32
2023-03-26T01:56:28.280Z,31.31
2023-03-26T02:00:28.254Z,31.28
2023-03-26T02:04:28.205Z,31.24
2023-03-26T02:08:28.241Z,31.23
2023-03-26T02:12:28.249Z,31.19
2023-03-26T02:16:28.212Z,31.21
2023-03-26T02:20:28.246Z,31.19
2023-03-26T02:24:28.221Z,31.16
2023-03-26T02:28:28.208Z,31.14
2023-03-26T02:32:29.352Z,31.11
2023-03-26T02:36:28.598Z,31.10
2023-03-26T02:40:28.198Z,31.06
2023-03-26T02:44:28.234Z,31.03
2023-03-26T02:48:28.199Z,31.04
2023-03-26T02:52:28.210Z,31.00
2023-03-26T02:56:28.254Z,30.96
2023-03-26T03:00:28.191Z,30.97
2023-03-26T03:04:28.218Z,30.96
2023-03-26T03:08:28.330Z,30.97
2023-03-26T03:12:28.249Z,30.93
2023-03-26T03:16:28.288Z,30.92
2023-03-26T03:20:28.289Z,30.88
2023-03-26T03:24:28.263Z,30.89
2023-03-26T03:28:28.297Z,30.89
2023-03-26T03:32:28.347Z,30.86
2023-03-26T03:36:28.376Z,30.85
2023-03-26T03:40:28.392Z,30.84
2023-03-26T03:44:28.391Z,30.81
2023-03-26T03:48:28.431Z,30.80
2023-03-26T03:52:28.474Z,30.81
2023-03-26T03:56:28.510Z,30.77
2023-03-26T04:00:28.560Z,30.77
2023-03-26T04:04:28.629Z,30.75
2023-03-26T04:08:28.669Z,30.74
2023-03-26T04:12:28.716Z,30.74
2023-03-26T04:16:28.798Z,30.74
2023-03-26T04:20:28.800Z,30.70
2023-03-26T04:24:28.846Z,30.68
2023-03-26T04:28:28.933Z,30.66
2023-03-26T04:32:28.994Z,30.65
2023-03-26T04:36:29.061Z,30.63
2023-03-26T04:40:29.058Z,30.64
2023-03-26T04:44:29.078Z,30.61
2023-03-26T04:48:29.154Z,30.60
2023-03-26T04:52:29.174Z,30.59
2023-03-26T04:56:29.267Z,30.59
2023-03-26T05:00:29.324Z,30.57
2023-03-26T05:04:29.442Z,30.53
2023-03-26T05:08:29.471Z,30.55
2023-03-26T05:12:29.578Z,30.50
2023-03-26T05:16:29.713Z,30.52
2023-03-26T05:20:29.720Z,30.48
2023-03-26T05:24:29.839Z,30.49
2023-03-26T05:28:29.937Z,30.46
2023-03-26T05:32:30.077Z,30.46
2023-03-26T05:36:30.083Z,30.41
2023-03-26T05:40:30.157Z,30.42
2023-03-26T05:44:30.256Z,30.40
2023-03-26T05:48:30.292Z,30.37
2023-03-26T05:52:30.490Z,30.35
2023-03-26T05:56:30.490Z,30.36
2023-03-26T06:00:30.595Z,30.32
2023-03-26T06:04:30.822Z,30.31
2023-03-26T06:08:30.739Z,30.32
2023-03-26T06:12:30.829Z,30.28
2023-03-26T06:16:30.978Z,30.26
2023-03-26T06:20:30.950Z,30.27
2023-03-26T06:24:31.039Z,30.26
2023-03-26T06:28:31.101Z,30.21
2023-03-26T06:32:31.153Z,30.22
2023-03-26T06:36:31.226Z,30.17
2023-03-26T06:40:31.289Z,30.17
2023-03-26T06:44:31.373Z,30.14
2023-03-26T06:48:31.397Z,30.16
2023-03-26T06:52:31.488Z,30.13
2023-03-26T06:56:31.580Z,30.10
2023-03-26T07:00:31.620Z,30.11
2023-03-26T07:04:31.647Z,30.09
2023-03-26T07:08:31.700Z,30.07
2023-03-26T07:12:31.704Z,30.03
2023-03-26T07:16:31.817Z,29.99
2023-03-26T07:20:31.866Z,29.95
2023-03-26T07:24:31.882Z,29.90
2023-03-26T07:28:31.867Z,29.84
2023-03-26T07:32:31.879Z,29.86
2023-03-26T07:36:31.844Z,29.85
2023-03-26T07:40:31.855Z,29.85
2023-03-26T07:44:33.536Z,29.82
2023-03-26T07:48:31.796Z,29.81
2023-03-26T07:52:31.772Z,29.80
2023-03-26T07:56:31.773Z,29.75
2023-03-26T08:00:31.696Z,29.72
2023-03-26T08:04:31.720Z,29.70
2023-03-26T08:08:31.643Z,29.64
2023-03-26T08:12:31.594Z,29.60
2023-03-26T08:16:31.572Z,29.61
2023-03-26T08:20:31.506Z,29.61
2023-03-26T08:24:31.482Z,29.67
2023-03-26T08:28:31.428Z,29.60
2023-03-26T08:32:31.413Z,29.60
2023-03-26T08:36:31.339Z,29.53
2023-03-26T08:40:31.334Z,29.53
2023-03-26T08:44:31.274Z,29.47
2023-03-26T08:48:31.261Z,29.41
2023-03-26T08:52:31.235Z,29.43
2023-03-26T08:56:31.208Z,29.39
2023-03-26T09:00:31.164Z,29.34
2023-03-26T09:04:31.139Z,29.28
2023-03-26T09:08:31.080Z,29.28
2023-03-26T09:12:31.027Z,29.30
2023-03-26T09:16:31.036Z,29.35
2023-03-26T09:20:30.995Z,29.37
2023-03-26T09:24:30.942Z,29.37
2023-03-26T09:28:30.897Z,29.30
2023-03-26T09:32:30.894Z,29.32
2023-03-26T09:36:30.809Z,29.33
2023-03-26T09:40:30.788Z,29.29
2023-03-26T09:44:30.755Z,29.25
2023-03-26T09:48:30.794Z,29.12
2023-03-26T09:52:30.887Z,29.26
2023-03-26T09:56:31.046Z,29.17
2023-03-26T10:00:31.074Z,29.20
2023-03-26T10:04:31.206Z,29.19
2023-03-26T10:08:32.548Z,29.12
2023-03-26T10:12:31.326Z,29.03
2023-03-26T10:16:31.491Z,29.18
2023-03-26T10:20:31.494Z,29.26
2023-03-26T10:24:31.594Z,29.19
2023-03-26T10:28:31.725Z,29.24
2023-03-26T10:32:31.871Z,29.23
2023-03-26T10:36:31.793Z,29.33
2023-03-26T10:40:31.891Z,29.32
2023-03-26T10:44:31.966Z,29.31
2023-03-26T10:48:32.068Z,29.34
2023-03-26T10:52:32.148Z,29.32
2023-03-26T10:56:32.333Z,29.30
2023-03-26T11:00:32.328Z,29.31
2023-03-26T11:04:32.402Z,29.24
2023-03-26T11:08:32.757Z,29.24
2023-03-26T11:12:32.577Z,29.18
2023-03-26T11:16:32.709Z,29.21
2023-03-26T11:20:32.783Z,29.16
2023-03-26T11:24:32.853Z,29.02
2023-03-26T11:28:32.920Z,29.12
2023-03-26T11:32:32.997Z,28.98
2023-03-26T11:36:33.103Z,29.03
2023-03-26T11:40:33.266Z,29.02
2023-03-26T11:44:33.591Z,29.04
2023-03-26T11:48:33.689Z,28.92
2023-03-26T11:52:33.934Z,28.65
2023-03-26T11:56:34.014Z,28.71
2023-03-26T12:00:33.848Z,28.85
2023-03-26T12:04:33.790Z,28.92
2023-03-26T12:08:33.769Z,28.97
2023-03-26T12:12:33.696Z,28.98
2023-03-26T12:16:33.727Z,28.98
2023-03-26T12:20:33.642Z,29.05
2023-03-26T12:24:33.613Z,29.15
2023-03-26T12:28:33.608Z,29.11
2023-03-26T12:32:45.230Z,29.11
2023-03-26T12:36:34.490Z,29.18
2023-03-26T12:40:33.563Z,29.27
2023-03-26T12:44:54.487Z,29.23
2023-03-26T12:48:34.511Z,29.21
2023-03-26T12:52:33.398Z,29.32
2023-03-26T12:56:33.404Z,29.30
2023-03-26T13:00:33.537Z,29.21
2023-03-26T13:04:33.539Z,29.22
2023-03-26T13:08:33.617Z,29.21
2023-03-26T13:12:33.703Z,29.26
2023-03-26T13:16:33.789Z,29.24
2023-03-26T13:20:33.860Z,29.25
2023-03-26T13:24:33.963Z,29.19
2023-03-26T13:28:33.975Z,29.18
2023-03-26T13:32:34.102Z,29.19
2023-03-26T13:36:34.308Z,29.17
2023-03-26T13:40:34.342Z,29.16
2023-03-26T13:44:34.398Z,29.11
2023-03-26T13:48:34.494Z,29.13
2023-03-26T13:52:34.596Z,29.12
2023-03-26T13:56:34.716Z,29.09
2023-03-26T14:00:34.805Z,29.07
2023-03-26T14:04:34.854Z,29.09
2023-03-26T14:08:34.960Z,29.10
2023-03-26T14:12:35.068Z,29.10
2023-03-26T14:16:35.133Z,29.10
2023-03-26T14:20:35.216Z,29.11
2023-03-26T14:24:35.329Z,29.13
2023-03-26T14:28:35.434Z,29.14
2023-03-26T14:32:35.518Z,29.14
2023-03-26T14:36:35.625Z,29.15
2023-03-26T14:40:35.731Z,29.18
2023-03-26T14:44:47.766Z,29.17
2023-03-26T14:48:36.795Z,29.18
2023-03-26T14:52:35.670Z,29.19
2023-03-26T14:56:35.711Z,29.22
2023-03-26T15:00:35.695Z,29.22
2023-03-26T15:04:35.641Z,29.24
2023-03-26T15:08:35.597Z,29.28
2023-03-26T15:12:35.530Z,29.28
2023-03-26T15:16:35.520Z,29.28
2023-03-26T15:20:35.544Z,29.34
2023-03-26T15:24:35.532Z,29.34
2023-03-26T15:28:35.504Z,29.35
2023-03-26T15:32:35.647Z,29.40
2023-03-26T15:36:35.570Z,29.39
2023-03-26T15:40:35.513Z,29.42
2023-03-26T15:44:43.769Z,29.42
2023-03-26T15:48:36.475Z,29.45
2023-03-26T15:52:35.412Z,29.44
2023-03-26T15:56:35.408Z,29.47
2023-03-26T16:00:35.367Z,29.48
2023-03-26T16:04:35.339Z,29.51
2023-03-26T16:08:37.418Z,29.50
2023-03-26T16:12:35.207Z,29.52
2023-03-26T16:16:35.189Z,29.56
2023-03-26T16:20:35.157Z,29.56
2023-03-26T16:24:35.143Z,29.57
2023-03-26T16:28:35.109Z,29.61
2023-03-26T16:32:35.089Z,29.59
2023-03-26T16:36:35.005Z,29.62
2023-03-26T16:40:34.965Z,29.63
2023-03-26T16:44:34.961Z,29.64
2023-03-26T16:48:34.915Z,29.68
2023-03-26T16:52:34.854Z,29.68
2023-03-26T16:56:34.838Z,29.74
2023-03-26T17:00:34.795Z,29.72
2023-03-26T17:04:34.761Z,29.74
2023-03-26T17:08:36.746Z,29.76
2023-03-26T17:12:34.801Z,29.78
2023-03-26T17:16:34.851Z,29.84
2023-03-26T17:20:34.843Z,29.81
2023-03-26T17:24:34.852Z,29.83
2023-03-26T17:28:34.920Z,29.86
2023-03-26T17:32:34.983Z,29.87
2023-03-26T17:36:35.896Z,29.89
2023-03-26T17:40:34.910Z,29.90
2023-03-26T17:44:34.828Z,29.90
2023-03-26T17:48:34.785Z,29.94
2023-03-26T17:52:34.783Z,29.94
2023-03-26T17:56:34.747Z,29.95
2023-03-26T18:00:34.663Z,29.98
2023-03-26T18:04:34.638Z,29.98
2023-03-26T18:08:34.681Z,30.00
2023-03-26T18:12:34.704Z,30.03
2023-03-26T18:16:34.777Z,30.06
2023-03-26T18:20:34.784Z,30.05
2023-03-26T18:24:34.802Z,30.05
2023-03-26T18:28:34.886Z,30.08
2023-03-26T18:32:34.984Z,30.09
2023-03-26T18:36:35.038Z,30.10
2023-03-26T18:40:35.131Z,30.11
2023-03-26T18:44:35.206Z,30.13
2023-03-26T18:48:35.245Z,30.14
2023-03-26T18:52:35.304Z,30.16
2023-03-26T18:56:35.406Z,30.18
2023-03-26T19:00:35.792Z,30.19
2023-03-26T19:04:35.547Z,30.21
2023-03-26T19:08:35.643Z,30.22
2023-03-26T19:12:35.726Z,30.23
2023-03-26T19:16:35.804Z,30.26
2023-03-26T19:20:35.851Z,30.29
2023-03-26T19:24:35.882Z,30.27
2023-03-26T19:28:36.018Z,30.26
2023-03-26T19:32:36.086Z,30.28
2023-03-26T19:36:36.158Z,30.31
2023-03-26T19:40:36.252Z,30.33
2023-03-26T19:44:36.329Z,30.35
2023-03-26T19:48:45.733Z,30.36
2023-03-26T19:52:37.447Z,30.37
2023-03-26T19:56:36.416Z,30.38
2023-03-26T20:00:36.342Z,30.41
2023-03-26T20:04:36.310Z,30.40
2023-03-26T20:08:36.378Z,30.41
2023-03-26T20:12:36.471Z,30.40
2023-03-26T20:16:36.581Z,30.43
2023-03-26T20:20:36.670Z,30.45
2023-03-26T20:24:36.802Z,30.46
2023-03-26T20:28:47.307Z,30.47
2023-03-26T20:32:37.868Z,30.47
2023-03-26T20:36:36.895Z,30.48
2023-03-26T20:40:36.805Z,30.48
2023-03-26T20:44:36.799Z,30.51
2023-03-26T20:48:36.913Z,30.51
2023-03-26T20:52:37.069Z,30.49
2023-03-26T20:56:37.223Z,30.52
2023-03-26T21:00:37.378Z,30.52
2023-03-26T21:04:37.489Z,30.53
2023-03-26T21:08:37.626Z,30.55
2023-03-26T21:12:37.774Z,30.54
2023-03-26T21:16:37.917Z,30.57
2023-03-26T21:20:38.035Z,30.57
2023-03-26T21:24:38.183Z,30.60
2023-03-26T21:28:42.391Z,30.60
2023-03-26T21:32:38.339Z,30.59
2023-03-26T21:36:38.365Z,30.63
2023-03-26T21:40:42.300Z,30.61
2023-03-26T21:44:39.223Z,30.62
2023-03-26T21:48:38.195Z,30.62
2023-03-26T21:52:38.215Z,30.63
2023-03-26T21:56:38.411Z,30.66
2023-03-26T22:00:43.734Z,30.64
2023-03-26T22:04:39.563Z,30.65
2023-03-26T22:08:38.476Z,30.67
2023-03-26T22:12:38.523Z,30.66
2023-03-26T22:16:38.703Z,30.67
2023-03-26T22:20:38.883Z,30.71
2023-03-26T22:24:39.122Z,30.69
2023-03-26T22:28:39.255Z,30.67
2023-03-26T22:32:39.475Z,30.70
2023-03-26T22:36:40.469Z,30.70
2023-03-26T22:40:39.766Z,30.69
2023-03-26T22:44:39.945Z,30.72
2023-03-26T22:48:40.186Z,30.73
2023-03-26T22:52:40.350Z,30.71
2023-03-26T22:56:40.556Z,30.73
2023-03-26T23:00:40.692Z,30.72
2023-03-26T23:04:40.982Z,30.74
2023-03-26T23:08:41.110Z,30.73
2023-03-26T23:12:41.343Z,30.75
2023-03-26T23:16:41.451Z,30.75
2023-03-26T23:20:41.665Z,30.75
2023-03-26T23:24:41.854Z,30.77
2023-03-26T23:28:42.031Z,30.75
2023-03-26T23:32:42.211Z,30.76
2023-03-26T23:36:42.425Z,30.78
2023-03-26T23:40:42.620Z,30.77
2023-03-26T23:44:42.773Z,30.76
2023-03-26T23:48:42.957Z,30.77
2023-03-26T23:52:43.158Z,30.77
2023-03-26T23:56:43.398Z,30.77
